ADDS METAR Data INFO
IDs: Format: Raw Decoded Include TAF

Data at: 0212 UTC 17 Aug 2018

PAYA 170153Z AUTO 17006KT 9SM -RA FEW021 OVC060 13/10 A3011 RMK AO2 RAB04E15B49 SLP197 P0000 T01330100 TSNO
PAYA 170053Z AUTO 17006KT 10SM OVC070 14/09 A3011 RMK AO2 SLP194 T01390094 TSNO
PAYA 162353Z AUTO VRB06KT 10SM SCT080 BKN100 14/07 A3010 RMK AO2 SLP193 60000 T01440072 10150 20128 51005 TSNO
PAYA 162253Z AUTO 17005KT 10SM OVC070 14/09 A3010 RMK AO2 RAE21 SLP193 P0000 T01390089 TSNO
PAYA 162153Z AUTO 17006KT 10SM -RA BKN060 OVC090 13/11 A3010 RMK AO2 RAB41 SLP191 P0000 T01330106 TSNO
PAYA 162136Z AUTO 17005KT 10SM SCT017 BKN070 OVC090 14/10 A3009 RMK AO2 T01390100 TSNO
PAYA 162117Z AUTO 17008KT 10SM BKN015 BKN020 BKN065 14/10 A3009 RMK AO2 T01440100 TSNO
PAYA 162053Z AUTO 15005KT 10SM SCT013 BKN070 OVC090 14/10 A3009 RMK AO2 SLP189 60000 T01390100 51006 TSNO
PAYA 161953Z AUTO 13005KT 10SM FEW036 OVC060 13/10 A3008 RMK AO2 RAB34E46 SLP186 P0000 T01330100 TSNO
PAYA 161900Z AUTO 15004KT 10SM SCT013 SCT017 OVC065 13/11 A3008 RMK AO2 T01330106 TSNO
PAYA 161853Z AUTO 15004KT 10SM BKN013 OVC065 13/11 A3008 RMK AO2 SLP186 T01330106 TSNO
PAYA 161844Z AUTO 14004KT 10SM SCT011 BKN016 OVC070 13/11 A3008 RMK AO2 T01330111 TSNO
PAYA 161836Z AUTO 15004KT 10SM BKN010 OVC070 13/11 A3008 RMK AO2 T01280106 TSNO
PAYA 161823Z AUTO 12005KT 10SM SCT010 OVC070 13/11 A3007 RMK AO2 T01280106 TSNO
PAYA 161753Z AUTO 13004KT 10SM BKN006 OVC070 13/11 A3007 RMK AO2 SLP183 60010 T01280111 10128 20106 53006 TSNO
PAYA 161744Z AUTO 12004KT 10SM BKN006 OVC070 12/11 A3007 RMK AO2 T01220111 TSNO
PAYA 161732Z AUTO 10005KT 10SM SCT006 OVC070 12/11 A3006 RMK AO2 T01220111 TSNO
PAYA 161653Z AUTO 10004KT 10SM BKN065 OVC085 12/10 A3005 RMK AO2 RAE32 SLP177 P0001 T01220100 TSNO
PAYA 161553Z AUTO 27006KT 6SM -RA BR FEW030 BKN046 OVC055 11/11 A3006 RMK AO2 RAB04 SLP180 P0007 T01110106 TSNO
PAYA 161525Z AUTO 22006KT 5SM -RA BR SCT003 BKN043 OVC055 11/11 A3006 RMK AO2 RAB04 P0003 T01110111 TSNO
PAYA 161506Z AUTO 13005KT 3SM -RA BR OVC002 11/11 A3006 RMK AO2 RAB04 P0000 T01110106 TSNO
PAYA 161503Z AUTO 13004KT 1 3/4SM R11/5000VP6000FT BR OVC002 11/11 A3006 RMK AO2 T01060106 TSNO
PAYA 161453Z AUTO 11003KT 1/2SM R11/3000V4000FT FG VV002 11/11 A3005 RMK AO2 SLP176 60002 T01060106 52003 TSNO
PAYA 161353Z AUTO 10004KT 1/4SM R11/3000V4500FT FG VV002 11/11 A3005 RMK AO2 RAE02 SLP175 P0000 T01060106 TSNO
PAYA 161350Z AUTO 11004KT 1/4SM R11/3000V4500FT FG VV002 11/11 A3005 RMK AO2 RAE02 P0000 TSNO
PAYA 161339Z AUTO 11003KT 3/4SM R11/3000VP6000FT BR OVC002 11/11 A3005 RMK AO2 RAE02 P0000 T01110106 TSNO
PAYA 161337Z AUTO 11004KT 1 1/2SM R11/3500VP6000FT BR OVC002 11/11 A3005 RMK AO2 RAE02 P0000 T01110106 TSNO
PAYA 161302Z AUTO 10004KT 10SM BKN003 OVC050 11/11 A3004 RMK AO2 RAE02 P0000 T01110106 TSNO
PAYA 161253Z AUTO 08004KT 9SM -RA SCT004 OVC050 11/11 A3004 RMK AO2 RAB30 SLP174 P0002 T01110106 TSNO
PAYA 161232Z AUTO 00000KT 10SM -RA FEW004 BKN024 OVC050 11/11 A3005 RMK AO2 RAB30 P0000 T01110106 TSNO
PAYA 161228Z AUTO 12003KT 10SM SCT022 BKN027 OVC050 11/11 A3005 RMK AO2 T01110106 TSNO
PAYA 161153Z AUTO 00000KT 5SM BR SCT026 SCT049 OVC070 11/11 A3005 RMK AO2 SLP175 60003 70021 T01110106 10128 20106 57002 TSNO
PAYA 161150Z AUTO 00000KT 3SM BR SCT026 BKN070 11/11 A3005 RMK AO2 TSNO
PAYA 161147Z AUTO 00000KT 1 1/2SM BR FEW003 SCT026 OVC070 11/11 A3005 RMK AO2 TSNO
PAYA 161123Z AUTO 00000KT 3/4SM R11/P6000FT BR FEW003 BKN080 11/11 A3004 RMK AO2 T01110106 TSNO
PAYA 161118Z AUTO 00000KT 1 3/4SM BR FEW003 BKN080 11/11 A3004 RMK AO2 T01110106 TSNO
PAYA 161107Z AUTO 00000KT 4SM BR SCT003 OVC080 11/11 A3004 RMK AO2 T01110106 TSNO
PAYA 161100Z AUTO 00000KT 8SM BKN003 OVC080 12/12 A3005 RMK AO2 T01170117 TSNO
PAYA 161053Z AUTO 00000KT 9SM SCT003 OVC075 12/12 A3005 RMK AO2 RAB04E15 SLP175 P0000 T01170117 TSNO
PAYA 161008Z AUTO 00000KT 7SM -RA SCT003 BKN031 OVC048 12/12 A3005 RMK AO2 RAB04 P0000 T01220117 TSNO
PAYA 160953Z AUTO 00000KT 10SM BKN003 BKN021 OVC055 12/12 A3006 RMK AO2 SLP178 T01220117 TSNO
PAYA 160946Z AUTO 00000KT 10SM BKN003 BKN025 OVC050 12/12 A3005 RMK AO2 T01220117 TSNO
PAYA 160936Z AUTO 00000KT 10SM SCT004 BKN042 OVC060 12/11 A3005 RMK AO2 T01220111 TSNO
PAYA 160924Z AUTO 00000KT 10SM SCT023 BKN042 OVC049 12/12 A3005 RMK AO2 T01220117 TSNO
PAYA 160853Z AUTO 00000KT 10SM BKN022 OVC032 12/12 A3005 RMK AO2 RAB11E53 SLP177 P0003 60003 T01220117 401500117 56001 TSNO
PAYA 160848Z AUTO 00000KT 9SM -RA SCT022 BKN027 OVC034 12/12 A3005 RMK AO2 RAB11 P0003 TSNO
PAYA 160753Z AUTO 00000KT 10SM FEW019 BKN044 OVC060 12/12 A3005 RMK AO2 RAE0657 SLP177 P0000 T01220117 TSNO
PAYA 160653Z AUTO 09003KT 10SM -RA FEW025 BKN049 OVC070 12/12 A3006 RMK AO2 RAB10E23B46 SLP178 P0000 T01220122 TSNO
PAYA 160553Z AUTO 07004KT 10SM FEW030 BKN049 OVC065 13/12 A3005 RMK AO2 RAE14 SLP175 P0002 60007 T01280117 10150 20128 53001 TSNO
PAYA 160535Z AUTO 00000KT 10SM SCT010 BKN032 OVC065 13/12 A3005 RMK AO2 RAE14 P0002 T01330122 TSNO
PAYA 160526Z AUTO 00000KT 10SM SCT010 BKN018 OVC065 13/12 A3005 RMK AO2 RAE14 P0002 T01280122 TSNO
PAYA 160519Z AUTO 00000KT 10SM FEW004 BKN012 OVC036 13/12 A3005 RMK AO2 RAE14 P0002 T01280122 TSNO
PAYA 160510Z AUTO 00000KT 10SM -RA BKN014 OVC021 13/12 A3005 RMK AO2 P0002 T01280122 TSNO
PAYA 160458Z AUTO 36003KT 3SM RA BR SCT011 BKN019 OVC060 13/12 A3005 RMK AO2 P0002 T01280122 TSNO
PAYA 160453Z AUTO 00000KT 2SM RA BR FEW011 BKN031 OVC060 13/12 A3005 RMK AO2 RAB30 SLP175 P0004 T01280122 TSNO
PAYA 160450Z AUTO 00000KT 2 1/2SM RA BR SCT014 BKN029 OVC060 13/12 A3005 RMK AO2 RAB30 P0003 TSNO
PAYA 160353Z AUTO 00000KT 10SM SCT015 SCT022 OVC034 14/12 A3004 RMK AO2 RAB23E44 SLP171 P0000 T01390122 TSNO
PAYA 160336Z AUTO 00000KT 7SM R11/6000VP6000FT -RA BKN017 BKN027 OVC065 14/12 A3004 RMK AO2 RAB23 P0000 T01390117 TSNO
PAYA 160308Z AUTO 24004KT 10SM FEW012 SCT026 OVC034 14/12 A3004 RMK AO2 T01440122 TSNO
PAYA 160253Z AUTO 22003KT 10SM SCT014 BKN025 OVC049 14/12 A3005 RMK AO2 SLP174 60001 T01440117 57003 TSNO
PAYA 160251Z AUTO 21003KT 10SM SCT015 BKN025 OVC050 14/12 A3005 RMK AO2 TSNO
PAYA 160217Z AUTO 21005KT 10SM SCT013 OVC065 14/12 A3005 RMK AO2 T01440117 TSNO
PAYA 160202Z AUTO 21005KT 10SM BKN014 OVC065 14/12 A3005 RMK AO2 T01440117 TSNO
PAYA 160153Z AUTO 20006KT 10SM BKN015 BKN065 14/12 A3006 RMK AO2 RAB0059E18 SLP178 P0001 T01440117 TSNO
PAYA 160143Z AUTO 21007KT 10SM BKN013 BKN050 OVC075 14/12 A3006 RMK AO2 RAB0059E18 P0001 T01440117 TSNO
PAYA 160130Z AUTO 20008KT 10SM BKN015 BKN026 OVC075 15/12 A3006 RMK AO2 RAB0059E18 P0001 T01500122 TSNO
PAYA 160119Z AUTO 19006KT 10SM BKN012 BKN020 OVC025 14/12 A3006 RMK AO2 RAB0059E18 P0001 T01440122 TSNO
PAYA 160107Z AUTO 19006KT 4SM -RA BR SCT012 BKN024 OVC043 14/12 A3006 RMK AO2 RAB0059 P0000 T01390117 TSNO
PAYA 160053Z AUTO 20007KT 10SM FEW008 BKN012 OVC044 14/12 A3006 RMK AO2 SLP180 T01440122 TSNO
PAYA 160022Z AUTO 19008KT 10SM SCT014 BKN026 OVC049 14/12 A3007 RMK AO2 T01440117 TSNO
PAYA 160007Z AUTO 17007KT 10SM BKN014 BKN047 OVC110 15/12 A3006 RMK AO2 T01500122 TSNO
PAYA 152353Z AUTO VRB03KT 10SM SCT012 BKN070 OVC110 14/12 A3007 RMK AO2 SLP181 60004 T01440117 10150 20122 56003 TSNO
PAYA 152312Z AUTO 17004KT 10SM SCT008 BKN014 BKN070 14/12 A3007 RMK AO2 T01440122 TSNO
PAYA 152304Z AUTO 19004KT 10SM SCT008 BKN016 OVC075 14/12 A3007 RMK AO2 T01440122 TSNO
PAYA 152253Z AUTO 21005KT 10SM BKN008 BKN013 OVC080 14/13 A3007 RMK AO2 CIG 005V011 SLP183 T01390128 TSNO
PAYA 152153Z AUTO VRB05KT 3SM BR SCT005 BKN009 OVC024 13/12 A3008 RMK AO2 RAE15 SLP184 P0000 T01330122 TSNO
PAYA 152133Z AUTO 17005KT 10SM BKN008 BKN015 OVC027 13/12 A3008 RMK AO2 RAE15 CIG 005V010 P0000 T01330122 TSNO
PAYA 152117Z AUTO 15005KT 10SM SCT007 BKN015 OVC028 13/12 A3007 RMK AO2 RAE15 P0000 T01330122 TSNO
PAYA 152110Z AUTO 16005KT 4SM R11/5000VP6000FT -RA BR SCT007 BKN013 OVC026 13/12 A3007 RMK AO2 P0000 T01330122 TSNO
PAYA 152104Z AUTO 17005KT 2 1/2SM R11/5000VP6000FT -RA BR BKN007 BKN013 OVC022 13/12 A3007 RMK AO2 P0000 T01330122 TSNO
PAYA 152053Z AUTO 17006KT 7SM -RA SCT007 BKN013 OVC049 13/12 A3007 RMK AO2 RAB53 SLP182 P0000 60004 T01330122 51004 TSNO
PAYA 152040Z AUTO 15005KT 10SM FEW007 BKN013 OVC055 14/12 A3007 RMK AO2 T01390122 TSNO
PAYA 152032Z AUTO 17006KT 10SM SCT010 BKN016 OVC060 14/12 A3007 RMK AO2 T01390122 TSNO
PAYA 152001Z AUTO 19006KT 10SM SCT007 BKN014 OVC043 14/12 A3007 RMK AO2 T01390122 TSNO
PAYA 151953Z AUTO 19006KT 10SM SCT007 BKN017 OVC043 13/12 A3007 RMK AO2 RAE07 SLP181 P0000 T01330122 TSNO
PAYA 151948Z AUTO 20003KT 10SM SCT007 SCT014 OVC043 13/12 A3007 RMK AO2 RAE07 P0000 TSNO
PAYA 151853Z AUTO 17006KT 3SM -RA BR BKN006 BKN009 OVC013 13/12 A3006 RMK AO2 SLP178 P0004 T01280122 TSNO
PAYA 151850Z AUTO 14003KT 3SM -RA BR BKN006 BKN009 OVC014 13/12 A3006 RMK AO2 P0003 TSNO
PAYA 151843Z AUTO 14004KT 2SM R11/5500VP6000FT -RA BR SCT006 BKN010 OVC014 13/12 A3006 RMK AO2 P0003 T01280122 TSNO
PAYA 151832Z AUTO 14003KT 1 3/4SM R11/4500V6000FT -RA BR FEW006 BKN010 OVC014 13/12 A3006 RMK AO2 P0002 T01280117 TSNO
PAYA 151820Z AUTO 16004KT 2SM R11/5000V6000FT -RA BR FEW004 SCT009 OVC015 12/12 A3005 RMK AO2 P0001 T01220117 TSNO
PAYA 151810Z AUTO 16004KT 1 3/4SM R11/5000VP6000FT -RA BR SCT004 BKN009 OVC013 12/12 A3005 RMK AO2 P0001 T01220117 TSNO
PAYA 151753Z AUTO 17003KT 2SM R11/6000VP6000FT -RA BR OVC004 12/12 A3005 RMK AO2 RAB06 SLP175 P0004 60007 T01220117 10128 20117 53011 TSNO
PAYA 151743Z AUTO 13004KT 2SM R11/6000VP6000FT -RA BR OVC004 12/12 A3005 RMK AO2 RAB06 P0004 T01220117 TSNO
PAYA 151731Z AUTO 14005KT 1 3/4SM -RA BR BKN006 OVC010 12/12 A3004 RMK AO2 RAB06 CIG 004V008 P0003 T01220117 TSNO
PAYA 151717Z AUTO 14004KT 1 1/4SM R11/4500VP6000FT -RA BR OVC006 12/12 A3004 RMK AO2 RAB06 CIG 004V010 P0002 T01220117 TSNO
PAYA 151707Z AUTO 14003KT 1 3/4SM R11/4500VP6000FT -RA BR OVC006 12/12 A3004 RMK AO2 RAB06 P0000 T01220117 TSNO
PAYA 151653Z AUTO 13003KT 4SM BR OVC006 13/12 A3004 RMK AO2 RAE1556 SLP172 P0000 T01280117 TSNO
PAYA 151636Z AUTO 13003KT 8SM OVC005 12/12 A3004 RMK AO2 RAE1556 P0000 T01220117 TSNO
PAYA 151601Z AUTO 13003KT 6SM BR OVC004 12/12 A3003 RMK AO2 RAE1556 P0000 T01220117 TSNO
PAYA 151553Z AUTO 13003KT 2 1/2SM -RA BR BKN004 OVC013 12/12 A3002 RMK AO2 RAB15 SLP167 P0002 T01220117 TSNO
PAYA 151540Z AUTO 12003KT 3SM -RA BR BKN003 BKN010 OVC020 12/12 A3002 RMK AO2 RAB15 P0002 T01220117 TSNO
PAYA 151536Z AUTO 11003KT 2SM -RA BR SCT003 BKN010 OVC016 12/12 A3002 RMK AO2 RAB15 P0001 T01220117 TSNO
PAYA 151532Z AUTO 00000KT 1 3/4SM R11/6000VP6000FT -RA BR FEW003 SCT010 OVC016 12/12 A3002 RMK AO2 RAB15 P0001 T01220117 TSNO
PAYA 151522Z AUTO 00000KT 1 3/4SM R11/5500VP6000FT -RA BR SCT003 BKN009 OVC021 12/12 A3002 RMK AO2 RAB15 CIG 008V011 P0001 T01220117 TSNO
PAYA 151520Z AUTO 00000KT 1 3/4SM R11/5500VP6000FT -RA BR SCT003 SCT012 OVC019 12/12 A3002 RMK AO2 RAB15 P0000 T01220117 TSNO
PAYA 151453Z AUTO 11003KT 2SM BR BKN003 OVC019 12/11 A3001 RMK AO2 RAB42E53 SLP164 P0001 60001 T01170111 53004 TSNO
PAYA 151445Z AUTO 12003KT 1 3/4SM -RA BR OVC004 12/12 A3001 RMK AO2 RAB42 P0000 T01220117 TSNO
PAYA 151424Z AUTO 00000KT 10SM BKN004 OVC028 12/12 A3001 RMK AO2 T01220117 TSNO